Aérodrome :
LOGIN :

S'inscrire | Disclaimer

   EN    FR    IT 

 










Légende :    VFR   VFR Marginal   IFR   IFR Intensif   IFR Très Intensif
Visi : 
Plafond : 
>= 8 km
>= 3000ft
5 à 8 km
1000 à 3000 ft
1500m à 5 km
500 à 1000 ft
800 à 1500m
200 à 500 ft
< 800m
< 200 ft
Symboles :   Orages  Brouillard  Fortes neiges  Fortes précipitations  Vent > 20 kt
SIGMETs :   Divers  Orages  Givrage  Turbulence  Onde Orograph.  Cendres Volcan.






- Altitude de l'aérodrome : 400 ft
- Code IATA : BNX


LQBK - Banja Luka

DERNIER METAR :
  • 131730Z 25004KT 7000 NSC 11/10 Q1002 NOSIG

METARs EXPIRÉS :
  • 131700Z 16006KT 7000 NSC 12/11 Q1002 NOSIG
  • 131630Z 14004KT 7000 NSC 12/11 Q1001 NOSIG
  • 131600Z 21006KT 7000 NSC 12/11 Q1000 NOSIG
  • 131530Z 21004KT 6000 BKN047 11/10 Q0999 NOSIG
  • 131500Z 14004KT 7000 BKN043 12/11 Q0999 NOSIG

TAF TAF LQBK
Valide du 13 à 12h jusqu'au 14 à 12h UTC


131100Z 1312/1412 25006KT 6000 SCT010 BKN030 TX15/1313Z TN06/1406Z
TEMPO 1312/1318 2000 SHRA FEW005 FEW025TCU BKN030
PROB40
TEMPO 1312/1318 16012KT
TEMPO 1322/1409 2000 BR
PROB30
TEMPO 1323/1406 0500 FG VV001
PROB40
TEMPO 1404/1408 1000 -RA BR BKN002 OVC015



MET'MAP, la Météo Aéronautique d'un coup d'oeil ! - Copyright ORBIFLY Décembre 2007 - Disclaimer

ORBIFLY MET'MAP TEAM :

Programmation & Développement : Alexandra Zaïnal
Conception & Développement : Baudouin d'Aumeries
Co-Programmation & Développement : Marc-Olivier Méhu
Soutien technique & logistique : Manuel Goepfert

Contact : metmap@orbifly.com




SOURCES & CREDITS :

   NOAA